createdAt,value
2023-04-27T00:00:10.713Z,954.00
2023-04-27T00:01:10.791Z,936.00
2023-04-27T00:02:10.847Z,947.00
2023-04-27T00:03:11.043Z,920.00
2023-04-27T00:04:11.043Z,933.00
2023-04-27T00:05:11.064Z,946.00
2023-04-27T00:06:11.048Z,928.00
2023-04-27T00:07:10.978Z,920.00
2023-04-27T00:08:11.012Z,906.00
2023-04-27T00:09:11.096Z,908.00
2023-04-27T00:10:11.106Z,901.00
2023-04-27T00:11:11.118Z,907.00
2023-04-27T00:12:11.141Z,901.00
2023-04-27T00:13:11.193Z,911.00
2023-04-27T00:14:11.205Z,892.00
2023-04-27T00:15:11.224Z,882.00
2023-04-27T00:16:11.293Z,878.00
2023-04-27T00:17:11.270Z,883.00
2023-04-27T00:18:11.316Z,891.00
2023-04-27T00:19:11.384Z,877.00
2023-04-27T00:20:11.391Z,893.00
2023-04-27T00:21:11.449Z,882.00
2023-04-27T00:22:11.459Z,884.00
2023-04-27T00:23:11.489Z,883.00
2023-04-27T00:24:11.561Z,876.00
2023-04-27T00:25:11.588Z,880.00
2023-04-27T00:26:11.663Z,887.00
2023-04-27T00:27:11.645Z,881.00
2023-04-27T00:28:12.506Z,883.00
2023-04-27T00:29:11.882Z,870.00
2023-04-27T00:30:11.753Z,865.00
2023-04-27T00:31:11.787Z,871.00
2023-04-27T00:32:11.954Z,857.00
2023-04-27T00:33:11.860Z,844.00
2023-04-27T00:34:11.911Z,851.00
2023-04-27T00:35:11.934Z,853.00
2023-04-27T00:36:11.995Z,848.00
2023-04-27T00:37:12.010Z,848.00
2023-04-27T00:38:12.056Z,846.00
2023-04-27T00:39:12.361Z,820.00
2023-04-27T00:40:12.101Z,828.00
2023-04-27T00:41:12.128Z,824.00
2023-04-27T00:42:12.176Z,835.00
2023-04-27T00:43:12.194Z,838.00
2023-04-27T00:44:12.250Z,845.00
2023-04-27T00:45:12.280Z,828.00
2023-04-27T00:46:12.386Z,835.00
2023-04-27T00:47:12.357Z,843.00
2023-04-27T00:48:12.388Z,826.00
2023-04-27T00:49:12.595Z,833.00
2023-04-27T00:50:12.513Z,820.00
2023-04-27T00:51:12.516Z,835.00
2023-04-27T00:52:12.553Z,826.00
2023-04-27T00:53:12.586Z,824.00
2023-04-27T00:54:12.612Z,812.00
2023-04-27T00:55:12.644Z,806.00
2023-04-27T00:56:12.680Z,822.00
2023-04-27T00:57:12.717Z,807.00
2023-04-27T00:58:12.786Z,809.00
2023-04-27T00:59:13.050Z,826.00
2023-04-27T01:00:12.821Z,806.00
2023-04-27T01:01:12.925Z,798.00
2023-04-27T01:02:13.003Z,808.00
2023-04-27T01:03:13.045Z,794.00
2023-04-27T01:04:13.137Z,789.00
2023-04-27T01:05:12.993Z,794.00
2023-04-27T01:06:12.999Z,793.00
2023-04-27T01:07:13.064Z,792.00
2023-04-27T01:08:13.096Z,782.00
2023-04-27T01:09:13.278Z,795.00
2023-04-27T01:10:13.175Z,785.00
2023-04-27T01:11:13.209Z,783.00
2023-04-27T01:12:13.234Z,790.00
2023-04-27T01:13:13.271Z,784.00
2023-04-27T01:14:13.303Z,783.00
2023-04-27T01:15:13.329Z,780.00
2023-04-27T01:16:13.450Z,772.00
2023-04-27T01:17:13.408Z,763.00
2023-04-27T01:18:13.472Z,769.00
2023-04-27T01:19:13.700Z,792.00
2023-04-27T01:20:13.521Z,780.00
2023-04-27T01:21:13.583Z,753.00
2023-04-27T01:22:13.617Z,757.00
2023-04-27T01:23:16.134Z,752.00
2023-04-27T01:24:13.634Z,768.00
2023-04-27T01:25:13.622Z,752.00
2023-04-27T01:26:13.611Z,756.00
2023-04-27T01:27:13.648Z,761.00
2023-04-27T01:28:13.588Z,738.00
2023-04-27T01:29:13.839Z,749.00
2023-04-27T01:30:13.627Z,750.00
2023-04-27T01:31:13.632Z,747.00
2023-04-27T01:32:13.566Z,754.00
2023-04-27T01:33:13.565Z,743.00
2023-04-27T01:34:13.543Z,740.00
2023-04-27T01:35:13.583Z,742.00
2023-04-27T01:36:13.528Z,728.00
2023-04-27T01:37:13.559Z,746.00
2023-04-27T01:38:13.531Z,725.00
2023-04-27T01:39:13.863Z,744.00
2023-04-27T01:40:13.503Z,728.00
2023-04-27T01:41:13.525Z,717.00
2023-04-27T01:42:13.502Z,716.00
2023-04-27T01:43:13.497Z,728.00
2023-04-27T01:44:13.522Z,735.00
2023-04-27T01:45:13.487Z,737.00
2023-04-27T01:46:13.530Z,724.00
2023-04-27T01:47:13.483Z,734.00
2023-04-27T01:48:13.468Z,719.00
2023-04-27T01:49:13.577Z,713.00
2023-04-27T01:50:13.461Z,734.00
2023-04-27T01:51:13.455Z,703.00
2023-04-27T01:52:13.464Z,703.00
2023-04-27T01:53:13.431Z,690.00
2023-04-27T01:54:13.407Z,692.00
2023-04-27T01:55:13.427Z,693.00
2023-04-27T01:56:13.405Z,697.00
2023-04-27T01:57:13.394Z,678.00
2023-04-27T01:58:13.420Z,680.00
2023-04-27T01:59:13.679Z,666.00
2023-04-27T02:00:13.381Z,673.00
2023-04-27T02:01:13.430Z,674.00
2023-04-27T02:02:13.388Z,682.00
2023-04-27T02:03:13.544Z,680.00
2023-04-27T02:04:13.568Z,682.00
2023-04-27T02:05:13.354Z,681.00
2023-04-27T02:06:13.347Z,680.00
2023-04-27T02:07:13.318Z,696.00
2023-04-27T02:08:13.336Z,689.00
2023-04-27T02:09:13.456Z,674.00
2023-04-27T02:10:13.288Z,688.00
2023-04-27T02:11:13.320Z,683.00
2023-04-27T02:12:13.340Z,693.00
2023-04-27T02:13:13.404Z,679.00
2023-04-27T02:14:13.414Z,681.00
2023-04-27T02:15:13.443Z,690.00
2023-04-27T02:16:13.567Z,681.00
2023-04-27T02:17:13.529Z,665.00
2023-04-27T02:18:13.558Z,676.00
2023-04-27T02:19:13.791Z,684.00
2023-04-27T02:20:13.649Z,657.00
2023-04-27T02:21:13.743Z,668.00
2023-04-27T02:22:13.728Z,665.00
2023-04-27T02:23:13.790Z,657.00
2023-04-27T02:24:13.851Z,668.00
2023-04-27T02:25:13.882Z,660.00
2023-04-27T02:26:13.899Z,660.00
2023-04-27T02:27:13.958Z,658.00
2023-04-27T02:28:13.986Z,668.00
2023-04-27T02:29:14.240Z,667.00
2023-04-27T02:30:14.056Z,659.00
2023-04-27T02:31:14.146Z,662.00
2023-04-27T02:32:14.130Z,655.00
2023-04-27T02:33:14.167Z,660.00
2023-04-27T02:34:14.217Z,666.00
2023-04-27T02:35:14.254Z,654.00
2023-04-27T02:36:14.308Z,657.00
2023-04-27T02:37:14.313Z,654.00
2023-04-27T02:38:14.341Z,653.00
2023-04-27T02:39:14.602Z,657.00
2023-04-27T02:40:14.446Z,659.00
2023-04-27T02:41:14.470Z,665.00
2023-04-27T02:42:15.049Z,654.00
2023-04-27T02:43:14.565Z,655.00
2023-04-27T02:44:14.678Z,657.00
2023-04-27T02:45:14.655Z,654.00
2023-04-27T02:46:14.700Z,647.00
2023-04-27T02:47:14.706Z,657.00
2023-04-27T02:48:14.788Z,652.00
2023-04-27T02:49:15.055Z,657.00
2023-04-27T02:50:14.839Z,653.00
2023-04-27T02:51:14.898Z,661.00
2023-04-27T02:52:14.936Z,650.00
2023-04-27T02:53:14.993Z,652.00
2023-04-27T02:54:15.015Z,647.00
2023-04-27T02:55:15.080Z,652.00
2023-04-27T02:56:15.123Z,657.00
2023-04-27T02:57:15.156Z,654.00
2023-04-27T02:58:15.195Z,643.00
2023-04-27T02:59:15.609Z,647.00
2023-04-27T03:00:15.282Z,647.00
2023-04-27T03:01:15.334Z,647.00
2023-04-27T03:02:15.379Z,650.00
2023-04-27T03:03:15.562Z,648.00
2023-04-27T03:04:15.647Z,647.00
2023-04-27T03:05:15.484Z,648.00
2023-04-27T03:06:15.562Z,644.00
2023-04-27T03:07:15.581Z,646.00
2023-04-27T03:08:15.618Z,644.00
2023-04-27T03:09:16.023Z,648.00
2023-04-27T03:10:15.709Z,643.00
2023-04-27T03:11:15.743Z,647.00
2023-04-27T03:12:15.801Z,643.00
2023-04-27T03:13:15.835Z,646.00
2023-04-27T03:14:15.902Z,649.00
2023-04-27T03:15:15.886Z,650.00
2023-04-27T03:16:15.964Z,644.00
2023-04-27T03:17:16.010Z,646.00
2023-04-27T03:18:16.054Z,642.00
2023-04-27T03:19:16.330Z,641.00
2023-04-27T03:20:16.136Z,643.00
2023-04-27T03:21:16.148Z,639.00
2023-04-27T03:22:16.215Z,639.00
2023-04-27T03:23:16.264Z,642.00
2023-04-27T03:24:16.280Z,644.00
2023-04-27T03:25:16.375Z,643.00
2023-04-27T03:26:16.399Z,635.00
2023-04-27T03:27:16.429Z,633.00
2023-04-27T03:28:16.543Z,636.00
2023-04-27T03:29:16.493Z,643.00
2023-04-27T03:30:16.520Z,636.00
2023-04-27T03:31:16.640Z,636.00
2023-04-27T03:32:16.654Z,634.00
2023-04-27T03:33:16.695Z,633.00
2023-04-27T03:34:16.715Z,637.00
2023-04-27T03:35:16.777Z,631.00
2023-04-27T03:36:16.996Z,634.00
2023-04-27T03:37:16.861Z,638.00
2023-04-27T03:38:16.916Z,643.00
2023-04-27T03:39:16.955Z,636.00
2023-04-27T03:40:17.001Z,636.00
2023-04-27T03:41:17.040Z,634.00
2023-04-27T03:42:17.078Z,629.00
2023-04-27T03:43:17.148Z,642.00
2023-04-27T03:44:17.170Z,635.00
2023-04-27T03:45:17.225Z,641.00
2023-04-27T03:46:17.260Z,644.00
2023-04-27T03:47:17.303Z,642.00
2023-04-27T03:48:17.345Z,637.00
2023-04-27T03:49:17.391Z,642.00
2023-04-27T03:50:17.427Z,639.00
2023-04-27T03:51:17.468Z,642.00
2023-04-27T03:52:17.537Z,643.00
2023-04-27T03:53:17.562Z,645.00
2023-04-27T03:54:17.616Z,643.00
2023-04-27T03:55:17.668Z,640.00
2023-04-27T03:56:17.705Z,632.00
2023-04-27T03:57:17.750Z,642.00
2023-04-27T03:58:17.803Z,642.00
2023-04-27T03:59:17.834Z,635.00
2023-04-27T04:00:17.918Z,635.00
2023-04-27T04:01:17.947Z,636.00
2023-04-27T04:02:18.068Z,635.00
2023-04-27T04:03:18.211Z,634.00
2023-04-27T04:04:18.360Z,633.00
2023-04-27T04:05:18.221Z,634.00
2023-04-27T04:06:18.185Z,635.00
2023-04-27T04:07:18.189Z,633.00
2023-04-27T04:08:18.232Z,632.00
2023-04-27T04:09:18.315Z,633.00
2023-04-27T04:10:18.341Z,635.00
2023-04-27T04:11:18.389Z,636.00
2023-04-27T04:12:18.423Z,638.00
2023-04-27T04:13:18.471Z,635.00
2023-04-27T04:14:18.529Z,634.00
2023-04-27T04:15:18.585Z,628.00
2023-04-27T04:16:18.644Z,625.00
2023-04-27T04:17:18.684Z,636.00
2023-04-27T04:18:18.697Z,636.00
2023-04-27T04:19:20.767Z,634.00
2023-04-27T04:20:18.764Z,632.00
2023-04-27T04:21:18.744Z,632.00
2023-04-27T04:22:18.724Z,634.00
2023-04-27T04:23:18.745Z,627.00
2023-04-27T04:24:18.729Z,631.00
2023-04-27T04:25:18.708Z,632.00
2023-04-27T04:26:18.696Z,631.00
2023-04-27T04:27:18.711Z,633.00
2023-04-27T04:28:18.680Z,626.00
2023-04-27T04:29:18.689Z,628.00
2023-04-27T04:30:18.673Z,629.00
2023-04-27T04:31:18.705Z,624.00
2023-04-27T04:32:18.676Z,626.00
2023-04-27T04:33:18.646Z,630.00
2023-04-27T04:34:18.658Z,636.00
2023-04-27T04:35:18.626Z,632.00
2023-04-27T04:36:18.642Z,627.00
2023-04-27T04:37:18.633Z,623.00
2023-04-27T04:38:18.626Z,630.00
2023-04-27T04:39:18.609Z,627.00
2023-04-27T04:40:18.577Z,628.00
2023-04-27T04:41:18.588Z,633.00
2023-04-27T04:42:18.606Z,633.00
2023-04-27T04:43:18.590Z,630.00
2023-04-27T04:44:18.583Z,627.00
2023-04-27T04:45:18.578Z,634.00
2023-04-27T04:46:18.574Z,632.00
2023-04-27T04:47:18.558Z,631.00
2023-04-27T04:48:18.528Z,626.00
2023-04-27T04:49:18.518Z,602.00
2023-04-27T04:50:18.510Z,590.00
2023-04-27T04:51:18.532Z,586.00
2023-04-27T04:52:18.521Z,573.00
2023-04-27T04:53:18.524Z,583.00
2023-04-27T04:54:18.492Z,596.00
2023-04-27T04:55:18.504Z,612.00
2023-04-27T04:56:18.480Z,609.00
2023-04-27T04:57:18.494Z,609.00
2023-04-27T04:58:18.505Z,618.00
2023-04-27T04:59:18.471Z,619.00
2023-04-27T05:00:18.540Z,618.00
2023-04-27T05:01:18.614Z,627.00
2023-04-27T05:02:18.694Z,627.00
2023-04-27T05:03:18.851Z,635.00
2023-04-27T05:04:18.989Z,640.00
2023-04-27T05:05:18.837Z,648.00
2023-04-27T05:06:18.867Z,652.00
2023-04-27T05:07:23.243Z,649.00
2023-04-27T05:08:19.949Z,649.00
2023-04-27T05:09:18.940Z,644.00
2023-04-27T05:10:18.947Z,640.00
2023-04-27T05:11:18.899Z,654.00
2023-04-27T05:12:18.897Z,674.00
2023-04-27T05:13:18.907Z,689.00
2023-04-27T05:14:18.891Z,700.00
2023-04-27T05:15:18.899Z,726.00
2023-04-27T05:16:18.965Z,721.00
2023-04-27T05:17:18.932Z,749.00
2023-04-27T05:18:19.012Z,752.00
2023-04-27T05:19:19.065Z,776.00
2023-04-27T05:20:19.142Z,814.00
2023-04-27T05:21:19.165Z,844.00
2023-04-27T05:22:19.213Z,859.00
2023-04-27T05:23:19.274Z,860.00
2023-04-27T05:24:19.290Z,880.00
2023-04-27T05:25:19.338Z,878.00
2023-04-27T05:26:19.406Z,888.00
2023-04-27T05:27:19.455Z,880.00
2023-04-27T05:28:19.514Z,861.00
2023-04-27T05:29:19.534Z,863.00
2023-04-27T05:30:19.586Z,918.00
2023-04-27T05:31:19.733Z,922.00
2023-04-27T05:32:19.724Z,956.00
2023-04-27T05:33:19.757Z,974.00
2023-04-27T05:34:19.814Z,1013.00
2023-04-27T05:35:19.842Z,1021.00
2023-04-27T05:36:19.881Z,1046.00
2023-04-27T05:37:19.938Z,1057.00
2023-04-27T05:38:20.035Z,1075.00
2023-04-27T05:39:20.095Z,1102.00
2023-04-27T05:40:21.115Z,1135.00
2023-04-27T05:41:20.145Z,1147.00
2023-04-27T05:42:20.207Z,1131.00
2023-04-27T05:43:20.243Z,1146.00
2023-04-27T05:44:20.318Z,1157.00
2023-04-27T05:45:20.424Z,1139.00
2023-04-27T05:46:20.463Z,1165.00
2023-04-27T05:47:20.509Z,1181.00
2023-04-27T05:48:20.534Z,1197.00
2023-04-27T05:49:20.542Z,1219.00
2023-04-27T05:50:20.601Z,1247.00
2023-04-27T05:51:20.637Z,1248.00
2023-04-27T05:52:20.709Z,1263.00
2023-04-27T05:53:21.127Z,1290.00
2023-04-27T05:54:20.787Z,1304.00
2023-04-27T05:55:20.801Z,1317.00
2023-04-27T05:56:20.975Z,1338.00
2023-04-27T05:57:20.878Z,1343.00
2023-04-27T05:58:20.934Z,1357.00
2023-04-27T05:59:20.983Z,1373.00
2023-04-27T06:00:21.063Z,1355.00
2023-04-27T06:01:21.067Z,1388.00
2023-04-27T06:02:21.237Z,1368.00
2023-04-27T06:03:21.327Z,1370.00
2023-04-27T06:04:21.259Z,1425.00
2023-04-27T06:05:21.253Z,1421.00
2023-04-27T06:06:21.226Z,1412.00
2023-04-27T06:07:21.279Z,1435.00
2023-04-27T06:08:21.326Z,1435.00
2023-04-27T06:09:21.333Z,1435.00
2023-04-27T06:10:21.390Z,1451.00
2023-04-27T06:11:21.437Z,1470.00
2023-04-27T06:12:21.445Z,1465.00
2023-04-27T06:13:21.511Z,1448.00
2023-04-27T06:14:21.533Z,1449.00
2023-04-27T06:15:21.545Z,1476.00
2023-04-27T06:16:21.733Z,1455.00
2023-04-27T06:17:21.628Z,1476.00
2023-04-27T06:18:21.652Z,1479.00
2023-04-27T06:19:21.666Z,1481.00
2023-04-27T06:20:21.694Z,1492.00
2023-04-27T06:21:21.767Z,1510.00
2023-04-27T06:22:21.772Z,1507.00
2023-04-27T06:23:21.808Z,1521.00
2023-04-27T06:24:21.811Z,1545.00
2023-04-27T06:25:22.805Z,1549.00
2023-04-27T06:26:21.831Z,1576.00
2023-04-27T06:27:21.881Z,1586.00
2023-04-27T06:28:21.886Z,1587.00
2023-04-27T06:29:21.915Z,1600.00
2023-04-27T06:30:21.909Z,1600.00
2023-04-27T06:31:22.003Z,1620.00
2023-04-27T06:32:21.954Z,1603.00
2023-04-27T06:33:21.984Z,1594.00
2023-04-27T06:34:21.989Z,1615.00
2023-04-27T06:35:22.020Z,1609.00
2023-04-27T06:36:22.168Z,1622.00
2023-04-27T06:37:22.034Z,1611.00
2023-04-27T06:38:22.048Z,1624.00
2023-04-27T06:39:22.049Z,1641.00
2023-04-27T06:40:22.085Z,1665.00
2023-04-27T06:41:22.171Z,1652.00
2023-04-27T06:42:22.101Z,1694.00
2023-04-27T06:43:22.125Z,1693.00
2023-04-27T06:44:22.129Z,1698.00
2023-04-27T06:45:22.137Z,1683.00
2023-04-27T06:46:22.206Z,1701.00
2023-04-27T06:47:22.165Z,1705.00
2023-04-27T06:48:22.707Z,1728.00
2023-04-27T06:49:22.171Z,1723.00
2023-04-27T06:50:22.233Z,1743.00
2023-04-27T06:51:22.361Z,1787.00
2023-04-27T06:52:22.184Z,1821.00
2023-04-27T06:53:22.175Z,1824.00
2023-04-27T06:54:22.180Z,1864.00
2023-04-27T06:55:22.178Z,1858.00
2023-04-27T06:56:22.202Z,1883.00
2023-04-27T06:57:22.164Z,1884.00
2023-04-27T06:58:22.201Z,1880.00
2023-04-27T06:59:22.177Z,1866.00
2023-04-27T07:00:22.170Z,1861.00
2023-04-27T07:01:22.208Z,1844.00
2023-04-27T07:02:24.326Z,1873.00
2023-04-27T07:03:22.305Z,1874.00
2023-04-27T07:04:22.221Z,1861.00
2023-04-27T07:05:22.183Z,1846.00
2023-04-27T07:06:22.144Z,1844.00
2023-04-27T07:07:22.158Z,1830.00
2023-04-27T07:08:22.148Z,1845.00
2023-04-27T07:09:27.407Z,1842.00
2023-04-27T07:10:23.137Z,1840.00
2023-04-27T07:11:22.118Z,1844.00
2023-04-27T07:12:22.097Z,1855.00
2023-04-27T07:13:22.121Z,1863.00
2023-04-27T07:14:22.111Z,1877.00
2023-04-27T07:15:22.109Z,1876.00
2023-04-27T07:16:22.160Z,1880.00
2023-04-27T07:17:22.091Z,1815.00
2023-04-27T07:18:22.082Z,1835.00
2023-04-27T07:19:22.081Z,1857.00
2023-04-27T07:20:22.044Z,1846.00
2023-04-27T07:21:22.026Z,1848.00
2023-04-27T07:22:22.020Z,1838.00
2023-04-27T07:23:22.049Z,1859.00
2023-04-27T07:24:22.026Z,1867.00
2023-04-27T07:25:22.033Z,1871.00
2023-04-27T07:26:22.016Z,1885.00
2023-04-27T07:27:22.000Z,1889.00
2023-04-27T07:28:22.041Z,1880.00
2023-04-27T07:29:27.033Z,1888.00
2023-04-27T07:30:22.994Z,1889.00
2023-04-27T07:31:22.048Z,1891.00
2023-04-27T07:32:22.163Z,1860.00
2023-04-27T07:33:22.173Z,1873.00
2023-04-27T07:34:21.984Z,1905.00
2023-04-27T07:35:21.951Z,1908.00
2023-04-27T07:36:21.933Z,1924.00
2023-04-27T07:37:22.001Z,1909.00
2023-04-27T07:38:21.958Z,1900.00
2023-04-27T07:39:21.916Z,1981.00
2023-04-27T07:40:21.955Z,2001.00
2023-04-27T07:41:21.879Z,2003.00
2023-04-27T07:42:21.908Z,1908.00
2023-04-27T07:43:22.189Z,1928.00
2023-04-27T07:44:21.889Z,1887.00
2023-04-27T07:45:21.891Z,1709.00
2023-04-27T07:46:21.931Z,1646.00
2023-04-27T07:47:21.929Z,1707.00
2023-04-27T07:48:22.340Z,1700.00
2023-04-27T07:49:21.843Z,1665.00
2023-04-27T07:50:21.871Z,1638.00
2023-04-27T07:51:21.852Z,1686.00
2023-04-27T07:52:21.872Z,1572.00
2023-04-27T07:53:21.895Z,1574.00
2023-04-27T07:54:21.876Z,1474.00
2023-04-27T07:55:21.886Z,1393.00
2023-04-27T07:56:21.947Z,1432.00
2023-04-27T07:57:21.888Z,1479.00
2023-04-27T07:58:21.950Z,1455.00
2023-04-27T07:59:21.916Z,1408.00
2023-04-27T08:00:21.934Z,1359.00
2023-04-27T08:01:21.946Z,1332.00
2023-04-27T08:02:22.084Z,1356.00
2023-04-27T08:03:22.186Z,1331.00
2023-04-27T08:04:22.243Z,1305.00
2023-04-27T08:05:22.185Z,1341.00
2023-04-27T08:06:22.213Z,1357.00
2023-04-27T08:07:22.489Z,1329.00
2023-04-27T08:08:21.992Z,1301.00
2023-04-27T08:09:21.991Z,1362.00
2023-04-27T08:10:21.979Z,1279.00
2023-04-27T08:11:21.962Z,1274.00
2023-04-27T08:12:21.947Z,1242.00
2023-04-27T08:13:23.207Z,1276.00
2023-04-27T08:14:21.983Z,1294.00
2023-04-27T08:15:22.013Z,1350.00
2023-04-27T08:16:22.074Z,1317.00
2023-04-27T08:17:21.993Z,1331.00
2023-04-27T08:18:21.957Z,1158.00
2023-04-27T08:19:21.989Z,1233.00
2023-04-27T08:20:21.977Z,1269.00
2023-04-27T08:21:21.954Z,1141.00
2023-04-27T08:22:21.956Z,1187.00
2023-04-27T08:23:21.970Z,1206.00
2023-04-27T08:24:22.164Z,1213.00
2023-04-27T08:25:21.961Z,1273.00
2023-04-27T08:26:23.449Z,1282.00
2023-04-27T08:27:21.958Z,1281.00
2023-04-27T08:28:21.914Z,1263.00
2023-04-27T08:29:27.685Z,1246.00
2023-04-27T08:30:22.999Z,1249.00
2023-04-27T08:31:21.941Z,1254.00
2023-04-27T08:32:21.937Z,1117.00
2023-04-27T08:33:21.886Z,1066.00
2023-04-27T08:34:21.902Z,1140.00
2023-04-27T08:35:21.921Z,1069.00
2023-04-27T08:36:22.003Z,960.00
2023-04-27T08:37:21.886Z,1042.00
2023-04-27T08:38:25.027Z,920.00
2023-04-27T08:39:21.858Z,974.00
2023-04-27T08:40:21.879Z,953.00
2023-04-27T08:41:22.511Z,889.00
2023-04-27T08:42:21.852Z,897.00
2023-04-27T08:43:21.831Z,994.00
2023-04-27T08:44:21.849Z,921.00
2023-04-27T08:45:21.807Z,1020.00
2023-04-27T08:46:21.842Z,1059.00
2023-04-27T08:47:31.445Z,1134.00
2023-04-27T08:48:22.899Z,1136.00
2023-04-27T08:49:22.267Z,1071.00
2023-04-27T08:50:21.796Z,1138.00
2023-04-27T08:51:21.775Z,1143.00
2023-04-27T08:52:21.780Z,1232.00
2023-04-27T08:53:21.768Z,1330.00
2023-04-27T08:54:21.757Z,1418.00
2023-04-27T08:55:21.768Z,1470.00
2023-04-27T08:56:21.761Z,1481.00
2023-04-27T08:57:21.755Z,1540.00
2023-04-27T08:58:21.714Z,1576.00
2023-04-27T08:59:21.735Z,1593.00
2023-04-27T09:00:21.860Z,1558.00
2023-04-27T09:01:21.730Z,1612.00
2023-04-27T09:02:21.786Z,1600.00
2023-04-27T09:03:21.863Z,1635.00
2023-04-27T09:04:21.997Z,1651.00
2023-04-27T09:05:21.709Z,1679.00
2023-04-27T09:06:21.700Z,1674.00
2023-04-27T09:07:21.703Z,1679.00
2023-04-27T09:08:21.670Z,1655.00
2023-04-27T09:09:21.668Z,1633.00
2023-04-27T09:10:21.727Z,1590.00
2023-04-27T09:11:21.656Z,1504.00
2023-04-27T09:12:21.719Z,1561.00
2023-04-27T09:13:21.680Z,1570.00
2023-04-27T09:14:21.713Z,1547.00
2023-04-27T09:15:21.720Z,1545.00
2023-04-27T09:16:21.726Z,1534.00
2023-04-27T09:17:21.740Z,1548.00
2023-04-27T09:18:21.717Z,1559.00
2023-04-27T09:19:21.724Z,1580.00
2023-04-27T09:20:21.736Z,1551.00
2023-04-27T09:21:21.740Z,1550.00
2023-04-27T09:22:21.734Z,1443.00
2023-04-27T09:23:21.731Z,1504.00
2023-04-27T09:24:21.737Z,1543.00
2023-04-27T09:25:21.749Z,1467.00
2023-04-27T09:26:21.824Z,1453.00
2023-04-27T09:27:21.822Z,1185.00
2023-04-27T09:28:21.828Z,1041.00
2023-04-27T09:29:21.846Z,1164.00
2023-04-27T09:30:21.858Z,1182.00
2023-04-27T09:31:21.918Z,1274.00
2023-04-27T09:32:22.010Z,1251.00
2023-04-27T09:33:21.962Z,1243.00
2023-04-27T09:34:22.007Z,1298.00
2023-04-27T09:35:22.002Z,1413.00
2023-04-27T09:36:22.013Z,1426.00
2023-04-27T09:37:22.046Z,1490.00
2023-04-27T09:38:22.127Z,1553.00
2023-04-27T09:39:22.719Z,1582.00
2023-04-27T09:40:22.273Z,1629.00
2023-04-27T09:41:22.308Z,1654.00
2023-04-27T09:42:22.341Z,1682.00
2023-04-27T09:43:22.365Z,1714.00
2023-04-27T09:44:22.680Z,1738.00
2023-04-27T09:45:22.460Z,1803.00
2023-04-27T09:46:22.565Z,1380.00
2023-04-27T09:47:22.547Z,1498.00
2023-04-27T09:48:22.628Z,1634.00
2023-04-27T09:49:22.679Z,1695.00
2023-04-27T09:50:22.704Z,1714.00
2023-04-27T09:51:22.755Z,1735.00
2023-04-27T09:52:22.779Z,1753.00
2023-04-27T09:53:22.824Z,1746.00
2023-04-27T09:54:22.917Z,1770.00
2023-04-27T09:55:22.888Z,1788.00
2023-04-27T09:56:23.005Z,1796.00
2023-04-27T09:57:23.002Z,1794.00
2023-04-27T09:58:23.017Z,1788.00
2023-04-27T09:59:23.035Z,1768.00
2023-04-27T10:00:23.040Z,1773.00
2023-04-27T10:01:23.114Z,1775.00
2023-04-27T10:02:24.813Z,1784.00
2023-04-27T10:03:23.208Z,1792.00
2023-04-27T10:04:23.328Z,1792.00
2023-04-27T10:05:23.279Z,1798.00
2023-04-27T10:06:23.232Z,1790.00
2023-04-27T10:07:23.244Z,1794.00
2023-04-27T10:08:23.298Z,1786.00
2023-04-27T10:09:23.283Z,1779.00
2023-04-27T10:10:23.308Z,1772.00
2023-04-27T10:11:23.351Z,1763.00
2023-04-27T10:12:23.391Z,1762.00
2023-04-27T10:13:23.382Z,1773.00
2023-04-27T10:14:23.405Z,1785.00
2023-04-27T10:15:23.413Z,1803.00
2023-04-27T10:16:23.476Z,1811.00
2023-04-27T10:17:23.454Z,1833.00
2023-04-27T10:18:23.449Z,1834.00
2023-04-27T10:19:23.442Z,1848.00
2023-04-27T10:20:23.460Z,1855.00
2023-04-27T10:21:23.467Z,1860.00
2023-04-27T10:23:23.505Z,1854.00
2023-04-27T10:24:23.490Z,1860.00
2023-04-27T10:25:23.504Z,1854.00
2023-04-27T10:26:23.511Z,1836.00
2023-04-27T10:27:23.520Z,1855.00
2023-04-27T10:28:23.529Z,1857.00
2023-04-27T10:29:23.539Z,1850.00
2023-04-27T10:30:23.509Z,1831.00
2023-04-27T10:31:23.561Z,1770.00
2023-04-27T10:32:23.574Z,1765.00
2023-04-27T10:33:23.528Z,1751.00
2023-04-27T10:34:23.576Z,1743.00
2023-04-27T10:35:23.569Z,1782.00
2023-04-27T10:36:23.571Z,1624.00
2023-04-27T10:37:23.578Z,1546.00
2023-04-27T10:38:23.636Z,1498.00
2023-04-27T10:39:30.071Z,1508.00
2023-04-27T10:40:24.628Z,1511.00
2023-04-27T10:41:23.582Z,1525.00
2023-04-27T10:42:23.599Z,1559.00
2023-04-27T10:43:23.573Z,1637.00
2023-04-27T10:44:23.744Z,1769.00
2023-04-27T10:45:23.571Z,1838.00
2023-04-27T10:46:23.597Z,1836.00
2023-04-27T10:47:23.588Z,1834.00
2023-04-27T10:48:23.563Z,1837.00
2023-04-27T10:49:23.562Z,1864.00
2023-04-27T10:50:23.558Z,1881.00
2023-04-27T10:51:23.550Z,1900.00
2023-04-27T10:52:23.523Z,1894.00
2023-04-27T10:53:23.523Z,1890.00
2023-04-27T10:54:23.517Z,1884.00
2023-04-27T10:55:23.514Z,1873.00
2023-04-27T10:56:23.550Z,1874.00
2023-04-27T10:57:23.516Z,1877.00
2023-04-27T10:58:23.474Z,1886.00
2023-04-27T10:59:23.478Z,1896.00
2023-04-27T11:00:23.865Z,1898.00
2023-04-27T11:01:23.520Z,1900.00
2023-04-27T11:02:23.551Z,1893.00
2023-04-27T11:03:23.557Z,1857.00
2023-04-27T11:04:23.474Z,1875.00
2023-04-27T11:05:23.468Z,1878.00
2023-04-27T11:06:23.426Z,1875.00
2023-04-27T11:07:23.433Z,1884.00
2023-04-27T11:08:23.420Z,1883.00
2023-04-27T11:09:23.453Z,1882.00
2023-04-27T11:10:23.443Z,1891.00
2023-04-27T11:11:23.500Z,1891.00
2023-04-27T11:12:23.596Z,1903.00
2023-04-27T11:13:23.622Z,1940.00
2023-04-27T11:14:23.649Z,1963.00
2023-04-27T11:15:23.707Z,1939.00
2023-04-27T11:16:23.820Z,1940.00
2023-04-27T11:17:23.845Z,1948.00
2023-04-27T11:18:23.947Z,1983.00
2023-04-27T11:19:23.956Z,1979.00
2023-04-27T11:20:24.069Z,1976.00
2023-04-27T11:21:24.059Z,1984.00
2023-04-27T11:22:24.119Z,1993.00
2023-04-27T11:23:24.230Z,2002.00
2023-04-27T11:24:24.300Z,1992.00
2023-04-27T11:25:24.319Z,2010.00
2023-04-27T11:26:24.394Z,2039.00
2023-04-27T11:27:24.482Z,2030.00
2023-04-27T11:28:24.643Z,2022.00
2023-04-27T11:29:24.743Z,2043.00
2023-04-27T11:30:24.657Z,2023.00
2023-04-27T11:31:24.732Z,2024.00
2023-04-27T11:32:24.824Z,2060.00
2023-04-27T11:33:24.831Z,2062.00
2023-04-27T11:34:24.859Z,2053.00
2023-04-27T11:35:24.943Z,2062.00
2023-04-27T11:36:25.022Z,2070.00
2023-04-27T11:37:25.082Z,2044.00
2023-04-27T11:38:25.187Z,1961.00
2023-04-27T11:39:25.259Z,1963.00
2023-04-27T11:40:25.235Z,1941.00
2023-04-27T11:41:25.233Z,1861.00
2023-04-27T11:42:25.233Z,1920.00
2023-04-27T11:43:25.234Z,1941.00
2023-04-27T11:44:25.244Z,1927.00
2023-04-27T11:45:25.251Z,1927.00
2023-04-27T11:46:25.307Z,1879.00
2023-04-27T11:47:25.344Z,1877.00
2023-04-27T11:48:25.274Z,1842.00
2023-04-27T11:49:25.271Z,1730.00
2023-04-27T11:50:25.271Z,1573.00
2023-04-27T11:51:25.274Z,1674.00
2023-04-27T11:52:25.317Z,1690.00
2023-04-27T11:53:25.325Z,1682.00
2023-04-27T11:54:25.314Z,1702.00
2023-04-27T11:55:25.337Z,1669.00
2023-04-27T11:56:25.370Z,1625.00
2023-04-27T11:57:25.372Z,1644.00
2023-04-27T11:58:25.402Z,1602.00
2023-04-27T11:59:25.447Z,1543.00
2023-04-27T12:00:25.472Z,1249.00
2023-04-27T12:01:37.037Z,1171.00
2023-04-27T12:02:26.513Z,951.00
2023-04-27T12:03:25.551Z,743.00
2023-04-27T12:04:25.712Z,808.00
2023-04-27T12:05:25.560Z,891.00
2023-04-27T12:06:32.638Z,977.00
2023-04-27T12:07:26.421Z,920.00
2023-04-27T12:08:25.424Z,969.00
2023-04-27T12:09:25.402Z,955.00
2023-04-27T12:10:25.386Z,1077.00
2023-04-27T12:11:25.426Z,1134.00
2023-04-27T12:12:25.369Z,1209.00
2023-04-27T12:13:25.388Z,1273.00
2023-04-27T12:14:25.368Z,1317.00
2023-04-27T12:15:25.356Z,1376.00
2023-04-27T12:16:25.354Z,1361.00
2023-04-27T12:17:25.435Z,1346.00